Guayaramerin, Bolivia
Current Conditions -  °F | °C
As of 7:00 PM on Thursday 18 Dec 2014 (Local Time) from SLRI Reporting Station
Overcast Overcast  
Wind Chill: 79°   Ceiling: 20000
Heat Index: 82°   Visibility: 6mi
Dew Point: 73°   Wind: 0mph
Humidity: 83%   Direction: NA
Pressure: 29.74"   Gusts: NA
Location:  10.83°S, 65.41°W
Report Text: SLRI 182300Z 00000KT 9999 SCT015 FEW020CB OVC200 26/23 Q1007
Loading
Personal Weather Stations






























Interactive Weather Map New forecast layout! Learn more

10-Day Weather Forecast

Advertisements
Track Severe Weather on mobile